createdAt,value
2024-03-05T00:03:46.333Z,7.34
2024-03-05T00:07:50.744Z,7.26
2024-03-05T00:11:53.746Z,7.25
2024-03-05T00:15:58.450Z,7.18
2024-03-05T00:20:01.471Z,6.98
2024-03-05T00:24:06.889Z,6.94
2024-03-05T00:28:09.987Z,6.81
2024-03-05T00:32:13.297Z,6.73
2024-03-05T00:36:16.301Z,6.75
2024-03-05T00:40:20.725Z,6.73
2024-03-05T00:44:23.844Z,6.68
2024-03-05T00:48:27.137Z,6.72
2024-03-05T00:52:30.221Z,6.77
2024-03-05T00:56:35.761Z,6.77
2024-03-05T01:00:39.170Z,6.60
2024-03-05T01:04:42.824Z,6.72
2024-03-05T01:08:45.914Z,6.72
2024-03-05T01:12:51.182Z,6.92
2024-03-05T01:16:54.373Z,6.99
2024-03-05T01:20:57.505Z,7.10
2024-03-05T01:25:00.451Z,7.19
2024-03-05T01:29:04.788Z,7.26
2024-03-05T01:33:10.976Z,7.32
2024-03-05T01:37:14.502Z,7.43
2024-03-05T01:41:17.540Z,7.45
2024-03-05T01:45:22.145Z,7.58
2024-03-05T01:49:26.080Z,7.66
2024-03-05T01:53:29.333Z,7.69
2024-03-05T01:57:33.103Z,7.78
2024-03-05T02:01:38.895Z,7.83
2024-03-05T02:05:43.757Z,7.79
2024-03-05T02:09:47.109Z,7.90
2024-03-05T02:13:50.388Z,7.90
2024-03-05T02:17:55.196Z,7.95
2024-03-05T02:22:00.747Z,7.94
2024-03-05T02:26:03.929Z,7.92
2024-03-05T02:30:11.931Z,7.92
2024-03-05T02:34:15.808Z,7.93
2024-03-05T02:38:20.412Z,8.00
2024-03-05T02:42:24.053Z,7.93
2024-03-05T02:46:27.065Z,7.96
2024-03-05T02:50:30.356Z,8.05
2024-03-05T02:54:35.839Z,8.05
2024-03-05T02:58:39.030Z,8.02
2024-03-05T03:02:42.028Z,8.02
2024-03-05T03:06:45.124Z,8.10
2024-03-05T03:10:50.528Z,8.05
2024-03-05T03:14:53.893Z,8.12
2024-03-05T03:18:57.438Z,8.16
2024-03-05T03:23:01.800Z,8.13
2024-03-05T03:27:06.334Z,8.11
2024-03-05T03:31:12.362Z,8.18
2024-03-05T03:35:15.645Z,8.19
2024-03-05T03:39:25.560Z,8.22
2024-03-05T03:43:30.436Z,8.22
2024-03-05T03:47:33.556Z,8.21
2024-03-05T03:51:36.548Z,8.19
2024-03-05T03:55:41.028Z,8.18
2024-03-05T03:59:45.392Z,8.23
2024-03-05T04:03:50.868Z,8.21
2024-03-05T04:08:03.339Z,8.11
2024-03-05T04:12:10.689Z,8.14
2024-03-05T04:16:15.178Z,8.21
2024-03-05T04:20:18.310Z,8.14
2024-03-05T04:24:21.629Z,8.11
2024-03-05T04:28:24.632Z,8.11
2024-03-05T04:32:29.236Z,8.18
2024-03-05T04:36:32.925Z,8.24
2024-03-05T04:40:36.360Z,8.26
2024-03-05T04:44:43.138Z,8.32
2024-03-05T04:48:50.148Z,8.37
2024-03-05T04:52:54.498Z,8.43
2024-03-05T04:56:57.801Z,8.51
2024-03-05T05:01:01.085Z,8.53
2024-03-05T05:05:06.284Z,8.60
2024-03-05T05:09:09.360Z,8.59
2024-03-05T05:13:13.715Z,8.60
2024-03-05T05:17:17.487Z,8.62
2024-03-05T05:21:22.072Z,8.71
2024-03-05T05:25:25.121Z,8.74
2024-03-05T05:29:39.863Z,8.73
2024-03-05T05:33:45.424Z,8.81
2024-03-05T05:37:49.887Z,8.83
2024-03-05T05:41:54.218Z,8.78
2024-03-05T05:45:57.199Z,8.73
2024-03-05T05:50:00.758Z,8.65
2024-03-05T05:54:11.975Z,8.55
2024-03-05T05:58:15.431Z,8.48
2024-03-05T06:02:20.807Z,8.43
2024-03-05T06:06:24.469Z,8.38
2024-03-05T06:10:30.660Z,8.37
2024-03-05T06:14:34.196Z,8.33
2024-03-05T06:18:38.095Z,8.34
2024-03-05T06:22:42.382Z,8.28
2024-03-05T06:26:46.968Z,8.23
2024-03-05T06:30:50.526Z,8.30
2024-03-05T06:34:55.584Z,8.41
2024-03-05T06:39:00.409Z,8.47
2024-03-05T06:43:14.613Z,8.44
2024-03-05T06:47:18.188Z,8.43
2024-03-05T06:51:32.799Z,8.44
2024-03-05T06:55:53.516Z,8.45
2024-03-05T06:59:58.664Z,8.45
2024-03-05T07:04:02.876Z,8.45
2024-03-05T07:08:09.214Z,8.45
2024-03-05T07:12:13.848Z,8.47
2024-03-05T07:16:19.384Z,8.48
2024-03-05T07:20:24.153Z,8.45
2024-03-05T07:24:29.964Z,8.43
2024-03-05T07:28:33.018Z,8.44
2024-03-05T07:32:37.337Z,8.40
2024-03-05T07:36:41.263Z,8.46
2024-03-05T07:40:44.693Z,8.50
2024-03-05T07:44:47.694Z,8.54
2024-03-05T07:48:52.032Z,8.63
2024-03-05T07:52:58.914Z,8.68
2024-03-05T07:57:03.091Z,8.62
2024-03-05T08:01:08.312Z,8.65
2024-03-05T08:05:13.288Z,8.66
2024-03-05T08:09:16.287Z,8.71
2024-03-05T08:13:21.597Z,8.66
2024-03-05T08:17:25.146Z,8.65
2024-03-05T08:21:29.905Z,8.60
2024-03-05T08:25:32.899Z,8.58
2024-03-05T08:29:36.081Z,8.65
2024-03-05T08:33:39.070Z,8.64
2024-03-05T08:37:44.474Z,8.68
2024-03-05T08:41:48.568Z,8.54
2024-03-05T08:45:51.844Z,8.49
2024-03-05T08:49:55.789Z,8.53
2024-03-05T08:54:00.193Z,8.50
2024-03-05T08:58:05.288Z,8.50
2024-03-05T09:02:08.385Z,8.54
2024-03-05T09:06:11.935Z,8.60
2024-03-05T09:10:18.660Z,8.60
2024-03-05T09:14:23.315Z,8.66
2024-03-05T09:18:26.608Z,8.68
2024-03-05T09:22:30.435Z,8.66
2024-03-05T09:26:34.916Z,8.66
2024-03-05T09:30:39.072Z,8.77
2024-03-05T09:34:42.380Z,8.80
2024-03-05T09:38:45.514Z,8.81
2024-03-05T09:42:50.188Z,8.83
2024-03-05T09:46:53.560Z,8.87
2024-03-05T09:50:59.110Z,8.89
2024-03-05T09:55:02.832Z,8.87
2024-03-05T09:59:08.390Z,8.98
2024-03-05T10:03:11.621Z,9.07
2024-03-05T10:07:26.021Z,9.11
2024-03-05T10:11:29.286Z,9.15
2024-03-05T10:15:35.822Z,9.13
2024-03-05T10:19:43.118Z,9.21
2024-03-05T10:23:47.619Z,9.21
2024-03-05T10:27:50.780Z,9.14
2024-03-05T10:32:04.730Z,9.14
2024-03-05T10:36:08.174Z,9.23
2024-03-05T10:40:12.067Z,9.25
2024-03-05T10:44:16.584Z,9.15
2024-03-05T10:48:22.460Z,9.20
2024-03-05T10:52:27.768Z,9.20
2024-03-05T10:56:37.277Z,9.27
2024-03-05T11:00:48.054Z,9.25
2024-03-05T11:04:54.642Z,9.27
2024-03-05T11:08:59.810Z,9.18
2024-03-05T11:13:04.664Z,9.13
2024-03-05T11:17:11.663Z,9.08
2024-03-05T11:21:18.845Z,8.89
2024-03-05T11:25:31.983Z,8.88
2024-03-05T11:29:35.780Z,8.87
2024-03-05T11:33:41.760Z,8.72
2024-03-05T11:37:50.178Z,8.72
2024-03-05T11:41:53.579Z,8.70
2024-03-05T11:45:57.906Z,8.76
2024-03-05T11:50:05.760Z,8.79
2024-03-05T11:54:10.867Z,8.80
2024-03-05T11:58:16.586Z,8.88
2024-03-05T12:02:21.547Z,8.91
2024-03-05T12:06:25.708Z,8.95
2024-03-05T12:10:32.785Z,9.10
2024-03-05T12:14:36.322Z,9.03
2024-03-05T12:18:39.993Z,9.09
2024-03-05T12:22:50.776Z,9.11
2024-03-05T12:26:57.474Z,9.30
2024-03-05T12:31:00.662Z,9.43
2024-03-05T12:35:06.445Z,9.56
2024-03-05T12:39:11.935Z,9.55
2024-03-05T12:43:16.280Z,9.79
2024-03-05T12:47:19.747Z,10.09
2024-03-05T12:51:23.270Z,10.17
2024-03-05T12:55:26.697Z,10.06
2024-03-05T12:59:31.040Z,10.70
2024-03-05T13:03:35.230Z,10.73
2024-03-05T13:07:38.353Z,10.75
2024-03-05T13:11:41.350Z,11.20
2024-03-05T13:15:45.772Z,11.13
2024-03-05T13:19:48.902Z,11.08
2024-03-05T13:23:51.861Z,10.34
2024-03-05T13:27:56.105Z,10.62
2024-03-05T13:32:01.487Z,10.58
2024-03-05T13:36:04.675Z,10.64
2024-03-05T13:40:11.236Z,10.46
2024-03-05T13:44:14.394Z,10.53
2024-03-05T13:48:20.966Z,10.15
2024-03-05T13:52:24.010Z,10.13
2024-03-05T13:56:27.193Z,10.05
2024-03-05T14:00:33.152Z,10.10
2024-03-05T14:04:37.688Z,10.11
2024-03-05T14:08:42.590Z,10.33
2024-03-05T14:12:50.742Z,10.40
2024-03-05T14:16:56.236Z,10.45
2024-03-05T14:21:00.737Z,10.57
2024-03-05T14:25:06.700Z,10.40
2024-03-05T14:29:09.733Z,10.46
2024-03-05T14:33:14.800Z,10.47
2024-03-05T14:37:20.488Z,10.19
2024-03-05T14:41:23.865Z,9.73
2024-03-05T14:45:26.783Z,9.44
2024-03-05T14:49:29.805Z,9.34
2024-03-05T14:53:34.717Z,9.38
2024-03-05T14:57:37.739Z,9.43
2024-03-05T15:01:40.888Z,9.49
2024-03-05T15:05:44.484Z,9.50
2024-03-05T15:09:49.175Z,9.38
2024-03-05T15:13:52.329Z,9.47
2024-03-05T15:17:55.786Z,9.46
2024-03-05T15:21:59.873Z,9.48
2024-03-05T15:26:05.238Z,9.48
2024-03-05T15:30:13.624Z,9.63
2024-03-05T15:34:16.668Z,9.94
2024-03-05T15:38:19.535Z,9.85
2024-03-05T15:42:25.999Z,9.77
2024-03-05T15:46:29.025Z,9.86
2024-03-05T15:50:32.718Z,10.22
2024-03-05T15:54:40.571Z,10.25
2024-03-05T15:59:02.305Z,10.68
2024-03-05T16:03:05.979Z,10.29
2024-03-05T16:07:09.134Z,10.20
2024-03-05T16:11:13.281Z,10.37
2024-03-05T16:15:18.275Z,10.26
2024-03-05T16:19:21.998Z,9.95
2024-03-05T16:23:26.913Z,9.89
2024-03-05T16:27:30.140Z,9.77
2024-03-05T16:31:35.093Z,9.70
2024-03-05T16:35:38.389Z,9.60
2024-03-05T16:39:44.641Z,9.50
2024-03-05T16:43:47.735Z,9.53
2024-03-05T16:47:52.804Z,9.39
2024-03-05T16:51:55.933Z,9.25
2024-03-05T16:56:00.392Z,9.23
2024-03-05T17:00:05.145Z,9.02
2024-03-05T17:04:14.633Z,8.88
2024-03-05T17:08:21.439Z,8.82
2024-03-05T17:12:24.702Z,8.74
2024-03-05T17:16:29.271Z,8.55
2024-03-05T17:20:35.694Z,8.57
2024-03-05T17:24:38.713Z,8.41
2024-03-05T17:28:43.514Z,8.36
2024-03-05T17:32:46.613Z,8.30
2024-03-05T17:36:51.249Z,8.18
2024-03-05T17:40:54.357Z,8.09
2024-03-05T17:44:57.986Z,8.06
2024-03-05T17:49:01.015Z,8.07
2024-03-05T17:53:06.992Z,8.05
2024-03-05T17:57:12.675Z,7.90
2024-03-05T18:01:16.279Z,7.75
2024-03-05T18:05:19.698Z,7.55
2024-03-05T18:09:30.170Z,7.41
2024-03-05T18:13:33.265Z,7.24
2024-03-05T18:17:40.488Z,7.05
2024-03-05T18:21:43.651Z,6.98
2024-03-05T18:25:49.653Z,6.89
2024-03-05T18:29:56.948Z,6.93
2024-03-05T18:34:00.507Z,7.06
2024-03-05T18:38:16.578Z,7.25
2024-03-05T18:42:29.936Z,7.29
2024-03-05T18:46:33.613Z,7.31
2024-03-05T18:50:36.901Z,7.44
2024-03-05T18:54:40.443Z,7.46
2024-03-05T18:58:46.661Z,7.49
2024-03-05T19:02:50.411Z,7.46
2024-03-05T19:06:53.586Z,7.45
2024-03-05T19:10:57.141Z,7.44
2024-03-05T19:15:01.692Z,7.45
2024-03-05T19:19:05.143Z,7.42
2024-03-05T19:23:09.081Z,7.36
2024-03-05T19:27:12.178Z,7.29
2024-03-05T19:31:16.642Z,7.25
2024-03-05T19:35:21.624Z,7.15
2024-03-05T19:39:24.624Z,7.12
2024-03-05T19:43:28.953Z,7.14
2024-03-05T19:47:34.893Z,7.12
2024-03-05T19:51:39.460Z,7.10
2024-03-05T19:55:42.541Z,7.02
2024-03-05T19:59:45.595Z,7.00
2024-03-05T20:03:50.983Z,7.09
2024-03-05T20:07:54.122Z,7.09
2024-03-05T20:11:57.178Z,7.01
2024-03-05T20:16:00.382Z,6.81
2024-03-05T20:20:06.664Z,6.73
2024-03-05T20:24:11.264Z,6.77
2024-03-05T20:28:16.495Z,6.69
2024-03-05T20:32:20.915Z,6.76
2024-03-05T20:36:25.686Z,6.83
2024-03-05T20:40:29.877Z,6.88
2024-03-05T20:44:32.866Z,6.81
2024-03-05T20:48:36.119Z,6.68
2024-03-05T20:52:40.721Z,6.70
2024-03-05T20:56:43.689Z,6.62
2024-03-05T21:00:46.724Z,6.67
2024-03-05T21:04:49.670Z,6.70
2024-03-05T21:08:54.649Z,6.70
2024-03-05T21:12:57.634Z,6.73
2024-03-05T21:17:00.662Z,6.75
2024-03-05T21:21:04.529Z,6.77
2024-03-05T21:25:09.302Z,6.92
2024-03-05T21:29:12.427Z,6.98
2024-03-05T21:33:15.498Z,6.92
2024-03-05T21:37:18.840Z,6.89
2024-03-05T21:41:23.483Z,6.90
2024-03-05T21:45:27.452Z,6.86
2024-03-05T21:49:30.462Z,6.83
2024-03-05T21:53:33.419Z,6.79
2024-03-05T21:57:41.092Z,6.86
2024-03-05T22:01:44.408Z,6.84
2024-03-05T22:05:47.449Z,6.88
2024-03-05T22:09:50.438Z,6.90
2024-03-05T22:13:55.042Z,6.90
2024-03-05T22:17:58.026Z,6.86
2024-03-05T22:22:01.088Z,6.76
2024-03-05T22:26:04.373Z,6.60
2024-03-05T22:30:09.628Z,6.68
2024-03-05T22:34:12.661Z,6.84
2024-03-05T22:38:15.638Z,6.91
2024-03-05T22:42:18.645Z,6.93
2024-03-05T22:46:26.193Z,6.97
2024-03-05T22:50:29.189Z,7.03
2024-03-05T22:54:32.169Z,7.01
2024-03-05T22:58:35.409Z,7.01
2024-03-05T23:02:39.753Z,7.07
2024-03-05T23:06:42.795Z,7.04
2024-03-05T23:10:45.868Z,7.11
2024-03-05T23:14:48.905Z,7.07
2024-03-05T23:18:53.342Z,6.99
2024-03-05T23:22:56.301Z,7.04
2024-03-05T23:26:59.294Z,7.08
2024-03-05T23:31:02.421Z,7.11
2024-03-05T23:35:07.410Z,7.04
2024-03-05T23:39:11.750Z,6.90
2024-03-05T23:43:14.630Z,6.76
2024-03-05T23:47:17.724Z,6.64
2024-03-05T23:51:22.063Z,6.40
2024-03-05T23:55:25.048Z,6.22
2024-03-05T23:59:28.018Z,6.07
